createdAt,value
2023-06-17T00:01:11.999Z,0.90
2023-06-17T00:03:45.892Z,0.90
2023-06-17T00:06:19.242Z,0.90
2023-06-17T00:08:52.995Z,0.90
2023-06-17T00:11:29.777Z,0.90
2023-06-17T00:14:03.587Z,0.90
2023-06-17T00:16:38.082Z,0.90
2023-06-17T00:19:16.669Z,0.90
2023-06-17T00:21:51.010Z,0.90
2023-06-17T00:24:24.429Z,0.90
2023-06-17T00:26:57.681Z,0.90
2023-06-17T00:29:30.974Z,0.90
2023-06-17T00:32:04.218Z,0.90
2023-06-17T00:34:37.529Z,0.90
2023-06-17T00:37:10.805Z,0.90
2023-06-17T00:39:44.073Z,0.90
2023-06-17T00:42:17.450Z,0.90
2023-06-17T00:44:50.750Z,1.00
2023-06-17T00:47:24.887Z,0.90
2023-06-17T00:49:58.323Z,0.90
2023-06-17T00:52:41.240Z,0.90
2023-06-17T00:55:16.514Z,0.90
2023-06-17T00:57:49.887Z,0.90
2023-06-17T01:00:23.488Z,0.90
2023-06-17T01:02:57.994Z,0.90
2023-06-17T01:05:31.957Z,0.90
2023-06-17T01:08:21.158Z,0.90
2023-06-17T01:10:59.033Z,0.90
2023-06-17T01:13:33.418Z,0.90
2023-06-17T01:16:06.978Z,0.90
2023-06-17T01:18:41.897Z,0.90
2023-06-17T01:21:16.907Z,0.90
2023-06-17T01:23:54.314Z,0.90
2023-06-17T01:26:29.292Z,0.90
2023-06-17T01:29:02.542Z,0.90
2023-06-17T01:31:35.886Z,0.90
2023-06-17T01:34:09.454Z,0.90
2023-06-17T01:36:43.347Z,0.90
2023-06-17T01:39:18.220Z,0.90
2023-06-17T01:41:53.690Z,0.90
2023-06-17T01:44:28.488Z,0.90
2023-06-17T01:47:01.774Z,0.90
2023-06-17T01:49:35.032Z,0.90
2023-06-17T01:52:10.646Z,0.90
2023-06-17T01:54:43.899Z,0.90
2023-06-17T01:57:17.174Z,0.90
2023-06-17T01:59:50.672Z,0.90
2023-06-17T02:02:24.385Z,0.90
2023-06-17T02:04:58.492Z,0.90
2023-06-17T02:07:31.733Z,0.90
2023-06-17T02:10:05.207Z,0.90
2023-06-17T02:12:38.484Z,0.90
2023-06-17T02:15:12.489Z,0.90
2023-06-17T02:17:46.125Z,0.90
2023-06-17T02:20:20.353Z,5.17
2023-06-17T02:22:53.867Z,0.90
2023-06-17T02:25:27.147Z,0.90
2023-06-17T02:28:00.527Z,0.90
2023-06-17T02:30:34.035Z,0.90
2023-06-17T02:33:08.216Z,0.90
2023-06-17T02:35:41.610Z,0.90
2023-06-17T02:38:15.149Z,3.73
2023-06-17T02:40:48.368Z,2.57
2023-06-17T02:43:21.711Z,5.73
2023-06-17T02:45:54.945Z,4.80
2023-06-17T02:48:28.165Z,6.40
2023-06-17T02:51:01.452Z,5.23
2023-06-17T02:53:34.734Z,4.50
2023-06-17T02:56:08.071Z,12.00
2023-06-17T02:58:44.258Z,4.07
2023-06-17T03:01:18.119Z,7.70
2023-06-17T03:03:56.145Z,4.50
2023-06-17T03:06:35.096Z,7.50
2023-06-17T03:09:09.326Z,6.07
2023-06-17T03:11:42.593Z,4.80
2023-06-17T03:14:20.552Z,8.77
2023-06-17T03:16:54.077Z,3.67
2023-06-17T03:19:28.020Z,4.50
2023-06-17T03:22:02.106Z,6.10
2023-06-17T03:24:35.499Z,7.47
2023-06-17T03:27:08.745Z,2.87
2023-06-17T03:29:42.043Z,9.00
2023-06-17T03:32:15.520Z,5.80
2023-06-17T03:34:48.784Z,6.70
2023-06-17T03:37:22.328Z,7.20
2023-06-17T03:39:55.595Z,5.70
2023-06-17T03:42:28.899Z,6.97
2023-06-17T03:45:02.159Z,3.83
2023-06-17T03:47:35.707Z,5.23
2023-06-17T03:50:09.412Z,9.27
2023-06-17T03:52:42.672Z,5.67
2023-06-17T03:55:17.511Z,7.80
2023-06-17T03:57:51.158Z,4.40
2023-06-17T04:00:24.644Z,6.87
2023-06-17T04:02:58.154Z,5.20
2023-06-17T04:05:32.618Z,6.87
2023-06-17T04:08:07.674Z,6.67
2023-06-17T04:10:41.514Z,6.87
2023-06-17T04:13:15.264Z,5.73
2023-06-17T04:15:48.552Z,5.57
2023-06-17T04:18:21.941Z,6.77
2023-06-17T04:20:57.653Z,5.33
2023-06-17T04:23:31.055Z,5.73
2023-06-17T04:26:04.349Z,7.23
2023-06-17T04:28:37.602Z,4.80
2023-06-17T04:31:12.129Z,6.20
2023-06-17T04:33:46.202Z,6.00
2023-06-17T04:36:19.731Z,6.00
2023-06-17T04:38:55.078Z,15.87
2023-06-17T04:41:28.831Z,4.90
2023-06-17T04:44:02.379Z,7.33
2023-06-17T04:46:36.337Z,5.10
2023-06-17T04:49:09.981Z,7.87
2023-06-17T04:51:43.233Z,7.53
2023-06-17T04:54:16.952Z,6.67
2023-06-17T04:56:52.544Z,7.23
2023-06-17T04:59:25.866Z,10.33
2023-06-17T05:01:59.112Z,4.63
2023-06-17T05:04:32.380Z,12.03
2023-06-17T05:07:05.930Z,8.27
2023-06-17T05:09:39.233Z,7.30
2023-06-17T05:12:12.648Z,11.03
2023-06-17T05:14:45.899Z,17.83
2023-06-17T05:17:19.160Z,8.60
2023-06-17T05:19:52.505Z,21.73
2023-06-17T05:22:25.754Z,10.60
2023-06-17T05:24:59.898Z,10.97
2023-06-17T05:27:33.594Z,5.80
2023-06-17T05:30:07.851Z,8.57
2023-06-17T05:32:41.129Z,6.63
2023-06-17T05:35:14.684Z,11.80
2023-06-17T05:37:47.918Z,6.00
2023-06-17T05:40:21.418Z,11.07
2023-06-17T05:42:54.797Z,8.47
2023-06-17T05:45:28.057Z,8.43
2023-06-17T05:48:01.412Z,8.33
2023-06-17T05:50:34.754Z,6.43
2023-06-17T05:53:07.990Z,9.47
2023-06-17T05:55:41.242Z,6.33
2023-06-17T05:58:14.719Z,7.70
2023-06-17T06:00:47.979Z,13.73
2023-06-17T06:03:21.290Z,8.67
2023-06-17T06:05:54.598Z,8.30
2023-06-17T06:08:27.877Z,11.73
2023-06-17T06:11:01.544Z,9.10
2023-06-17T06:13:34.797Z,8.60
2023-06-17T06:16:08.095Z,7.90
2023-06-17T06:18:41.434Z,17.93
2023-06-17T06:21:14.737Z,7.30
2023-06-17T06:23:48.048Z,12.33
2023-06-17T06:26:22.417Z,12.33
2023-06-17T06:28:55.817Z,8.50
2023-06-17T06:31:29.050Z,16.33
2023-06-17T06:34:02.369Z,6.90
2023-06-17T06:36:35.577Z,11.07
2023-06-17T06:39:08.841Z,6.10
2023-06-17T06:41:42.187Z,9.10
2023-06-17T06:44:15.499Z,10.87
2023-06-17T06:46:48.921Z,8.63
2023-06-17T06:49:22.386Z,9.80
2023-06-17T06:51:55.756Z,8.10
2023-06-17T06:54:29.040Z,10.60
2023-06-17T06:57:02.613Z,8.00
2023-06-17T06:59:35.904Z,7.50
2023-06-17T07:02:09.164Z,12.37
2023-06-17T07:04:43.236Z,8.60
2023-06-17T07:07:16.482Z,7.47
2023-06-17T07:09:49.767Z,8.60
2023-06-17T07:12:23.073Z,8.53
2023-06-17T07:14:56.329Z,8.40
2023-06-17T07:17:29.603Z,8.93
2023-06-17T07:20:06.332Z,9.47
2023-06-17T07:22:39.697Z,9.57
2023-06-17T07:25:12.958Z,7.30
2023-06-17T07:27:46.252Z,11.50
2023-06-17T07:30:19.805Z,9.97
2023-06-17T07:32:53.343Z,13.93
2023-06-17T07:35:26.711Z,9.20
2023-06-17T07:37:59.974Z,15.77
2023-06-17T07:40:33.346Z,10.67
2023-06-17T07:43:06.701Z,16.53
2023-06-17T07:45:40.068Z,9.97
2023-06-17T07:48:13.819Z,11.00
2023-06-17T07:50:47.256Z,11.00
2023-06-17T07:53:21.014Z,11.27
2023-06-17T07:55:55.157Z,13.60
2023-06-17T07:58:28.432Z,9.70
2023-06-17T08:01:02.721Z,11.63
2023-06-17T08:03:36.181Z,12.13
2023-06-17T08:06:09.694Z,13.80
2023-06-17T08:08:43.294Z,11.63
2023-06-17T08:11:16.670Z,8.23
2023-06-17T08:13:49.931Z,12.10
2023-06-17T08:16:23.254Z,9.53
2023-06-17T08:18:56.522Z,17.13
2023-06-17T08:21:29.924Z,10.00
2023-06-17T08:24:22.153Z,8.83
2023-06-17T08:26:55.963Z,11.33
2023-06-17T08:29:29.273Z,11.70
2023-06-17T08:32:03.107Z,10.57
2023-06-17T08:34:37.224Z,10.13
2023-06-17T08:37:10.551Z,13.10
2023-06-17T08:39:43.865Z,9.07
2023-06-17T08:42:17.181Z,13.07
2023-06-17T08:44:50.846Z,10.30
2023-06-17T08:47:24.417Z,12.40
2023-06-17T08:49:58.212Z,9.87
2023-06-17T08:52:33.778Z,12.70
2023-06-17T08:55:08.223Z,10.67
2023-06-17T08:57:45.526Z,8.03
2023-06-17T09:00:19.526Z,12.23
2023-06-17T09:02:53.724Z,10.00
2023-06-17T09:05:27.181Z,8.50
2023-06-17T09:08:00.877Z,14.53
2023-06-17T09:10:44.392Z,12.47
2023-06-17T09:13:17.682Z,10.90
2023-06-17T09:15:51.064Z,9.47
2023-06-17T09:18:24.296Z,10.90
2023-06-17T09:20:58.365Z,8.47
2023-06-17T09:23:31.643Z,9.07
2023-06-17T09:26:06.270Z,11.73
2023-06-17T09:28:39.504Z,12.80
2023-06-17T09:31:13.216Z,13.50
2023-06-17T09:33:47.174Z,11.50
2023-06-17T09:36:20.945Z,10.17
2023-06-17T09:38:54.264Z,8.10
2023-06-17T09:41:27.695Z,14.17
2023-06-17T09:44:01.340Z,12.17
2023-06-17T09:46:40.881Z,11.90
2023-06-17T09:49:17.462Z,11.23
2023-06-17T09:51:52.909Z,14.67
2023-06-17T09:54:27.605Z,10.17
2023-06-17T09:57:04.306Z,7.77
2023-06-17T09:59:37.583Z,9.40
2023-06-17T10:02:10.844Z,13.33
2023-06-17T10:04:45.178Z,12.07
2023-06-17T10:07:19.139Z,10.70
2023-06-17T10:09:52.718Z,12.20
2023-06-17T10:12:26.534Z,10.97
2023-06-17T10:15:01.157Z,12.37
2023-06-17T10:17:36.622Z,10.50
2023-06-17T10:20:11.136Z,10.63
2023-06-17T10:22:44.992Z,11.60
2023-06-17T10:25:18.246Z,13.30
2023-06-17T10:27:51.758Z,12.80
2023-06-17T10:30:28.695Z,8.70
2023-06-17T10:33:03.192Z,10.50
2023-06-17T10:35:39.870Z,14.40
2023-06-17T10:38:29.791Z,12.07
2023-06-17T10:41:03.159Z,12.43
2023-06-17T10:43:39.325Z,10.07
2023-06-17T10:46:12.648Z,12.50
2023-06-17T10:48:48.291Z,11.40
2023-06-17T10:51:28.365Z,10.00
2023-06-17T10:54:05.844Z,7.73
2023-06-17T10:56:54.779Z,15.53
2023-06-17T10:59:32.697Z,8.37
2023-06-17T11:02:09.584Z,8.40
2023-06-17T11:04:42.986Z,14.33
2023-06-17T11:07:16.356Z,9.53
2023-06-17T11:09:49.645Z,9.40
2023-06-17T11:12:22.964Z,7.37
2023-06-17T11:14:56.912Z,8.63
2023-06-17T11:17:30.229Z,7.87
2023-06-17T11:20:05.316Z,6.53
2023-06-17T11:22:39.515Z,7.53
2023-06-17T11:25:12.915Z,7.47
2023-06-17T11:27:46.730Z,7.70
2023-06-17T11:30:20.837Z,7.17
2023-06-17T11:32:54.285Z,10.37
2023-06-17T11:35:27.631Z,11.20
2023-06-17T11:38:01.160Z,6.57
2023-06-17T11:40:34.401Z,6.63
2023-06-17T11:43:07.776Z,10.70
2023-06-17T11:45:41.167Z,7.97
2023-06-17T11:48:14.436Z,8.13
2023-06-17T11:50:47.740Z,10.37
2023-06-17T11:53:29.171Z,10.13
2023-06-17T11:56:06.607Z,11.43
2023-06-17T11:58:43.848Z,9.80
2023-06-17T12:01:17.111Z,9.23
2023-06-17T12:03:50.443Z,8.50
2023-06-17T12:06:23.840Z,9.57
2023-06-17T12:08:58.210Z,7.33
2023-06-17T12:11:36.934Z,8.50
2023-06-17T12:14:12.048Z,5.57
2023-06-17T12:16:46.130Z,6.47
2023-06-17T12:19:23.646Z,6.80
2023-06-17T12:21:56.861Z,5.53
2023-06-17T12:24:30.277Z,8.60
2023-06-17T12:27:03.913Z,6.60
2023-06-17T12:29:37.363Z,7.23
2023-06-17T12:32:10.839Z,6.60
2023-06-17T12:34:44.996Z,9.57
2023-06-17T12:37:20.732Z,7.47
2023-06-17T12:39:55.265Z,6.67
2023-06-17T12:42:28.660Z,8.77
2023-06-17T12:45:03.755Z,6.00
2023-06-17T12:47:40.009Z,6.23
2023-06-17T12:50:13.642Z,11.60
2023-06-17T12:52:50.701Z,10.07
2023-06-17T12:55:24.136Z,7.57
2023-06-17T12:57:57.672Z,12.03
2023-06-17T13:00:30.871Z,10.27
2023-06-17T13:03:04.462Z,7.37
2023-06-17T13:05:37.796Z,8.20
2023-06-17T13:08:11.193Z,10.40
2023-06-17T13:10:44.544Z,7.67
2023-06-17T13:13:17.818Z,7.93
2023-06-17T13:15:52.640Z,10.73
2023-06-17T13:18:26.506Z,6.60
2023-06-17T13:20:59.907Z,6.60
2023-06-17T13:23:33.116Z,5.03
2023-06-17T13:26:06.459Z,9.00
2023-06-17T13:28:39.931Z,6.80
2023-06-17T13:31:13.412Z,5.00
2023-06-17T13:33:46.661Z,5.63
2023-06-17T13:36:20.096Z,4.20
2023-06-17T13:38:54.098Z,6.67
2023-06-17T13:41:31.701Z,4.83
2023-06-17T13:44:06.650Z,7.30
2023-06-17T13:46:40.198Z,11.10
2023-06-17T13:49:13.505Z,6.13
2023-06-17T13:51:46.787Z,6.37
2023-06-17T13:54:21.350Z,3.90
2023-06-17T13:56:55.899Z,7.30
2023-06-17T13:59:29.169Z,9.13
2023-06-17T14:02:02.552Z,5.97
2023-06-17T14:04:35.918Z,6.63
2023-06-17T14:07:09.274Z,5.77
2023-06-17T14:09:42.568Z,6.60
2023-06-17T14:12:16.022Z,6.67
2023-06-17T14:14:49.402Z,4.83
2023-06-17T14:17:25.106Z,8.43
2023-06-17T14:19:58.784Z,7.70
2023-06-17T14:22:32.009Z,7.20
2023-06-17T14:25:06.419Z,6.80
2023-06-17T14:27:40.343Z,6.90
2023-06-17T14:30:14.624Z,8.13
2023-06-17T14:32:48.548Z,4.73
2023-06-17T14:35:21.834Z,13.67
2023-06-17T14:37:55.328Z,7.50
2023-06-17T14:40:28.644Z,6.00
2023-06-17T14:43:02.043Z,4.23
2023-06-17T14:45:35.468Z,5.90
2023-06-17T14:48:08.941Z,5.53
2023-06-17T14:50:42.887Z,5.27
2023-06-17T14:53:18.883Z,6.33
2023-06-17T14:55:52.453Z,6.93
2023-06-17T14:58:25.800Z,5.63
2023-06-17T15:00:59.238Z,5.17
2023-06-17T15:03:33.301Z,6.50
2023-06-17T15:06:07.053Z,6.33
2023-06-17T15:08:40.702Z,6.37
2023-06-17T15:11:14.027Z,6.50
2023-06-17T15:13:47.281Z,7.10
2023-06-17T15:16:22.602Z,4.73
2023-06-17T15:18:55.928Z,6.47
2023-06-17T15:21:29.150Z,6.13
2023-06-17T15:24:03.047Z,7.43
2023-06-17T15:26:37.162Z,5.00
2023-06-17T15:29:11.552Z,6.13
2023-06-17T15:31:45.372Z,5.47
2023-06-17T15:34:18.944Z,5.83
2023-06-17T15:36:52.428Z,6.13
2023-06-17T15:39:28.747Z,5.10
2023-06-17T15:42:01.984Z,10.10
2023-06-17T15:44:35.994Z,4.70
2023-06-17T15:47:09.295Z,6.33
2023-06-17T15:49:44.316Z,8.90
2023-06-17T15:52:17.677Z,5.90
2023-06-17T15:55:15.973Z,7.73
2023-06-17T15:57:49.193Z,5.03
2023-06-17T16:00:22.956Z,5.03
2023-06-17T16:02:58.312Z,5.27
2023-06-17T16:05:31.886Z,7.13
2023-06-17T16:08:05.396Z,8.17
2023-06-17T16:10:39.094Z,5.30
2023-06-17T16:13:12.307Z,6.17
2023-06-17T16:15:46.809Z,6.77
2023-06-17T16:18:20.139Z,11.77
2023-06-17T16:20:53.408Z,4.27
2023-06-17T16:23:26.852Z,3.90
2023-06-17T16:26:00.345Z,6.83
2023-06-17T16:28:33.591Z,8.10
2023-06-17T16:31:08.742Z,8.43
2023-06-17T16:33:42.230Z,7.50
2023-06-17T16:36:15.526Z,4.03
2023-06-17T16:38:48.841Z,11.00
2023-06-17T16:41:23.211Z,4.67
2023-06-17T16:43:56.462Z,4.83
2023-06-17T16:46:29.799Z,4.07
2023-06-17T16:49:03.053Z,4.90
2023-06-17T16:51:36.396Z,7.17
2023-06-17T16:54:09.619Z,4.67
2023-06-17T16:56:43.430Z,6.30
2023-06-17T16:59:16.729Z,5.67
2023-06-17T17:01:50.016Z,3.40
2023-06-17T17:04:23.325Z,7.40
2023-06-17T17:06:56.555Z,5.20
2023-06-17T17:09:30.066Z,3.77
2023-06-17T17:12:05.817Z,7.03
2023-06-17T17:14:41.353Z,7.20
2023-06-17T17:17:14.623Z,7.80
2023-06-17T17:19:47.944Z,5.17
2023-06-17T17:22:21.565Z,5.47
2023-06-17T17:24:54.844Z,4.90
2023-06-17T17:27:28.089Z,5.30
2023-06-17T17:30:01.395Z,5.47
2023-06-17T17:32:35.004Z,5.67
2023-06-17T17:35:08.677Z,7.07
2023-06-17T17:37:42.361Z,4.27
2023-06-17T17:40:17.102Z,5.70
2023-06-17T17:42:50.507Z,4.93
2023-06-17T17:45:23.744Z,5.10
2023-06-17T17:47:57.054Z,3.77
2023-06-17T17:50:30.524Z,4.80
2023-06-17T17:53:03.749Z,4.10
2023-06-17T17:55:37.020Z,3.17
2023-06-17T17:58:10.335Z,5.10
2023-06-17T18:00:43.633Z,3.20
2023-06-17T18:03:17.174Z,10.77
2023-06-17T18:05:50.694Z,4.60
2023-06-17T18:08:23.944Z,4.83
2023-06-17T18:10:57.284Z,4.47
2023-06-17T18:13:30.706Z,5.53
2023-06-17T18:16:04.510Z,5.53
2023-06-17T18:18:37.817Z,5.03
2023-06-17T18:21:11.041Z,10.63
2023-06-17T18:23:44.951Z,6.63
2023-06-17T18:26:18.237Z,7.47
2023-06-17T18:28:51.637Z,8.87
2023-06-17T18:31:25.019Z,5.70
2023-06-17T18:33:58.291Z,6.50
2023-06-17T18:36:31.681Z,4.83
2023-06-17T18:39:05.066Z,10.17
2023-06-17T18:41:42.876Z,6.03
2023-06-17T18:44:16.246Z,7.00
2023-06-17T18:46:49.557Z,6.93
2023-06-17T18:49:24.085Z,11.37
2023-06-17T18:51:57.384Z,9.63
2023-06-17T18:54:30.651Z,6.83
2023-06-17T18:57:04.004Z,7.00
2023-06-17T18:59:37.324Z,12.90
2023-06-17T19:02:11.049Z,7.67
2023-06-17T19:04:44.308Z,7.93
2023-06-17T19:07:17.716Z,5.17
2023-06-17T19:09:51.429Z,4.93
2023-06-17T19:12:24.701Z,7.80
2023-06-17T19:14:58.637Z,6.13
2023-06-17T19:17:31.938Z,4.47
2023-06-17T19:20:06.737Z,4.73
2023-06-17T19:22:40.477Z,9.10
2023-06-17T19:25:13.853Z,3.47
2023-06-17T19:27:47.138Z,5.27
2023-06-17T19:30:20.691Z,5.47
2023-06-17T19:32:54.474Z,5.13
2023-06-17T19:35:28.356Z,10.67
2023-06-17T19:38:02.780Z,4.67
2023-06-17T19:40:36.062Z,5.43
2023-06-17T19:43:09.350Z,10.67
2023-06-17T19:45:45.079Z,6.20
2023-06-17T19:48:18.467Z,5.07
2023-06-17T19:50:51.954Z,6.57
2023-06-17T19:53:25.309Z,4.50
2023-06-17T19:55:58.709Z,6.57
2023-06-17T19:58:31.997Z,7.17
2023-06-17T20:01:05.457Z,4.80
2023-06-17T20:03:38.860Z,9.13
2023-06-17T20:06:14.442Z,5.23
2023-06-17T20:08:48.279Z,6.33
2023-06-17T20:11:25.682Z,5.93
2023-06-17T20:13:59.108Z,8.17
2023-06-17T20:16:32.428Z,9.20
2023-06-17T20:19:05.840Z,6.60
2023-06-17T20:21:39.099Z,6.90
2023-06-17T20:24:12.427Z,10.70
2023-06-17T20:26:45.665Z,5.50
2023-06-17T20:29:18.922Z,4.10
2023-06-17T20:31:53.268Z,5.20
2023-06-17T20:34:26.631Z,6.97
2023-06-17T20:36:59.918Z,5.13
2023-06-17T20:39:33.258Z,6.70
2023-06-17T20:42:06.742Z,5.87
2023-06-17T20:44:39.974Z,4.40
2023-06-17T20:47:13.308Z,4.43
2023-06-17T20:49:46.766Z,5.20
2023-06-17T20:52:20.076Z,9.27
2023-06-17T20:54:53.479Z,7.13
2023-06-17T20:57:26.707Z,11.93
2023-06-17T21:00:00.000Z,5.60
2023-06-17T21:02:33.296Z,6.20
2023-06-17T21:05:08.734Z,6.30
2023-06-17T21:07:43.087Z,4.80
2023-06-17T21:10:16.920Z,4.93
2023-06-17T21:12:50.192Z,7.60
2023-06-17T21:15:23.633Z,7.63
2023-06-17T21:17:57.002Z,8.30
2023-06-17T21:20:30.257Z,5.00
2023-06-17T21:23:03.682Z,5.57
2023-06-17T21:25:37.023Z,5.77
2023-06-17T21:28:10.508Z,5.33
2023-06-17T21:30:43.744Z,6.03
2023-06-17T21:33:16.998Z,5.97
2023-06-17T21:35:50.597Z,6.43
2023-06-17T21:38:23.887Z,6.60
2023-06-17T21:40:58.425Z,7.20
2023-06-17T21:43:33.522Z,5.50
2023-06-17T21:46:07.807Z,4.77
2023-06-17T21:48:43.313Z,7.60
2023-06-17T21:51:16.561Z,5.23
2023-06-17T21:53:49.829Z,8.17
2023-06-17T21:56:23.087Z,4.90
2023-06-17T21:58:56.334Z,9.17
2023-06-17T22:01:29.996Z,7.97
2023-06-17T22:04:03.433Z,10.70
2023-06-17T22:06:36.886Z,6.47
2023-06-17T22:09:10.160Z,7.37
2023-06-17T22:11:43.427Z,8.27
2023-06-17T22:14:16.669Z,7.77
2023-06-17T22:16:49.988Z,9.17
2023-06-17T22:19:23.237Z,4.40
2023-06-17T22:21:56.418Z,8.00
2023-06-17T22:24:29.714Z,6.07
2023-06-17T22:27:02.974Z,6.60
2023-06-17T22:29:36.248Z,7.17
2023-06-17T22:32:09.637Z,9.90
2023-06-17T22:34:42.861Z,7.10
2023-06-17T22:37:16.131Z,10.40
2023-06-17T22:39:49.357Z,11.90
2023-06-17T22:42:22.667Z,7.60
2023-06-17T22:44:56.009Z,6.43
2023-06-17T22:47:29.391Z,5.83
2023-06-17T22:50:02.825Z,6.73
2023-06-17T22:52:36.539Z,7.80
2023-06-17T22:55:10.023Z,3.80
2023-06-17T22:57:43.277Z,7.70
2023-06-17T23:00:16.710Z,7.80
2023-06-17T23:02:50.069Z,5.73
2023-06-17T23:05:23.603Z,10.70
2023-06-17T23:07:56.895Z,10.73
2023-06-17T23:10:30.163Z,5.93
2023-06-17T23:13:03.400Z,7.37
2023-06-17T23:15:40.237Z,7.87
2023-06-17T23:18:13.487Z,6.37
2023-06-17T23:20:46.783Z,8.30
2023-06-17T23:23:21.901Z,6.70
2023-06-17T23:25:55.618Z,6.10
2023-06-17T23:28:28.848Z,7.20
2023-06-17T23:31:03.385Z,6.23
2023-06-17T23:33:36.613Z,8.57
2023-06-17T23:36:09.883Z,14.10
2023-06-17T23:38:43.147Z,5.07
2023-06-17T23:41:17.384Z,8.40
2023-06-17T23:43:50.814Z,7.93
2023-06-17T23:46:25.131Z,6.17
2023-06-17T23:48:58.554Z,7.47
2023-06-17T23:51:31.828Z,4.53
2023-06-17T23:54:05.090Z,10.60
2023-06-17T23:56:38.369Z,6.47
2023-06-17T23:59:11.629Z,5.20
